الصفحة الرئيسية
METAR-TAF:

METAR-TAF

مطار :

إل سنترو, كاليفورنيا, الولايات المتحدة

دائرة عرض: 32-49-30N, خط طول: 115-39-38W, ارتفاع: 13 متر

مراقبة الطقس الحالي

تاريخ ووقت الإصدار 30 دقيقة قبل الساعة 02:56UTC
ريح 3 عقدة من الشمال/الشمال الغربي
درجة الحرارة 15°درجة مئوية
الرطوبة 63%
ضغط 1021 hPa
الرؤية: 16.1 كم
سماء صافية

METAR: KNJK 230256Z AUTO 34003KT 10SM CLR 15/08 A3015 RMK AO2 SLP226 T01500083 53016

زمن: 19:26 (03:26 UTC)

توقعات

التوقعات صالحة من22 الساعة 23 UTC إلى 23 الساعة 23 UTC
ريح 6 عقدةمن اتجاهات متغيرة
الرؤية: 2314 متر
غيوم قليلة على ارتفاع 8000 قدم
غيوم قليلة على ارتفاع 25000 قدم

TAF: KNJK 2223/2323 VRB06KT 9999 FEW080 FEW250 QNH3005INS AUTOMATED SENSOR METWATCH 2302 TIL 2314 T08/2312Z T22/2323Z FS30093

أرصاد الطقس والتوقعات من أكثر من 4000 مطار (تقارير الطقس للمطار METAR والتنبؤ بالطقس بالمطارTAF).

المحطات المتاحة هي النقط الصفراء والحمراء على الخريطة.

حرك المؤشر فوق النقطة لمعرفة اسم المحطة.

ثم انقر لمعرفة أرصاد وتوقعات الطقس.

لتغيير الخارطة: اضغط على الأزرار الخضراء مع رمز الصليب الأسود للتكبير. على الزر الأخضر مع شرطة للتصغير، أو على الأسهم الخضراء للخرائط المجاورة.


METAR-TAF: